Walworth, NY (14568)

3:02 AM EDT on August 31, 2014 (GMT -0400)
Walworth/Huddle | Change Station
CLOSE
Current Station
Personal Weather Station
Location: Walworth, NY
Elevation: 459 ft
Nearby Weather Stations

Elev 459 ft 43.13 °N, 77.27 °W | Updated 12 seconds ago

Overcast
Overcast
73.2 °F
Feels Like 74 °F
N
0.0
Wind Variable Wind from North
Gusts 0.0 mph

Today
High -- | Low -- °F
--% Chance of Precip.
Yesterday
High -- | Low -- °F
Precip. -- in
6:32 AM 7:45 PM
Waxing Crescent, 28% visible
Pressure 29.96 in
Visibility 8.0 miles
Clouds Scattered Clouds 3000 ft
Mostly Cloudy 10000 ft
Mostly Cloudy 20000 ft
Heat Index 74 °F
Dew Point 16 °F
Humidity 11%
Rainfall 0.00 in
Snow Depth Not available.
UV 0 out of 12
Pollen 9.60 out of 12
Air Quality Not available.
Flu Activity Not available.
METAR KROC 310654Z 22007KT 8SM -RA SCT030 BKN100 BKN200 23/21 A2996 RMK AO2 TSB30E50RAB07E31B50 SLP143 TS DSIPTD P0001 T02330206

More Conditions Fewer Conditions

Pressure 29.96 in
Visibility 8.0 miles
Clouds Scattered Clouds 3000 ft
Mostly Cloudy 10000 ft
Mostly Cloudy 20000 ft
Heat Index 74 °F
Dew Point 16 °F
Humidity 11%
Rainfall 0.00 in
Snow Depth Not available.
UV 0 out of 12
Pollen 9.60 out of 12
Air Quality Not available.
Flu Activity Not available.
METAR KROC 310654Z 22007KT 8SM -RA SCT030 BKN100 BKN200 23/21 A2996 RMK AO2 TSB30E50RAB07E31B50 SLP143 TS DSIPTD P0001 T02330206

More Conditions Fewer Conditions

10-Day Weather Forecast

Almanac

Astronomy

Aug. 31, 2014 Rise Set
Actual Time 6:32 AM EDT 7:45 PM EDT
Civil Twilight 6:02 AM EDT 8:15 PM EDT
Nautical Twilight 5:27 AM EDT 8:50 PM EDT
Astronomical Twilight 4:50 AM EDT 9:27 PM EDT
Moon 12:26 PM EDT 10:49 PM EDT
Length of Visible Light 14h 12m
Length of Day
13h 13m
Tomorrow will be 2m 49s shorter.
Waxing Crescent, 28% of the Moon is Illuminated
Today
Waxing Crescent
Sep 2
First Quarter
Sep 8
Full
Sep 15
Last Quarter
Sep 24
New

Today's Extremes

State Highs State Lows

Community

WunderPhotos

Upload Photos

1,748,806 photos uploaded!

Nearby

Air Quality

  Air Quality AQ Index Pollutant
Sunday Good
PM2.5
Sunday Good
OZONE
Monday Moderate
OZONE
Monday Moderate
PM2.5
Tuesday Good
PM2.5
Tuesday Good
OZONE

Snow Depth

Station Depth Elevation
No new snow has been reported.

Earthquake Activity

City Distance Mag. Time & Date
No recent earthquake activity has been reported nearby.
Minimum magnitude displayed is 2.5.

Coastal Water Temperatures

Place Temperature
Buffalo, NY 73.0 °F
Alexandria Bay, NY 69.1 °F

Nearby Weather Stations